Terminal Aerodrome Forecast
Issued by NWS

Home | Current Version | Previous Version | Text Only | Print | Product List | Glossary On
Versions: 1 2 3 4 5 6 7 8 9 10 11 12
840
FTUS44 KSJT 171720
TAFBBD
TAF
KBBD 171720Z 1718/1818 04008KT P6SM -SHRA OVC015
     FM172100 04009KT 4SM -SHRA BR OVC020
      TEMPO 1722/1724 5SM -TSRA OVC015CB
     FM180000 02005KT 3SM -RA BR OVC007
     FM180500 01005KT 2SM -DZ BR OVC004
      AMD NOT SKED=

USA.gov is the U.S. government's official web portal to all federal, state and local government web resources and services.